sensor_id;sensor_type;location;lat;lon;timestamp;P1;durP1;ratioP1;P2;durP2;ratioP2
79644;SDS011;69117;47.148;18.954;2023-06-19T00:02:42;5.97;;;4.18;;
79644;SDS011;69117;47.148;18.954;2023-06-19T00:05:44;6.38;;;3.92;;
79644;SDS011;69117;47.148;18.954;2023-06-19T00:08:46;6.82;;;4.18;;
79644;SDS011;69117;47.148;18.954;2023-06-19T00:11:47;5.28;;;3.83;;
79644;SDS011;69117;47.148;18.954;2023-06-19T00:14:49;6.40;;;3.90;;
79644;SDS011;69117;47.148;18.954;2023-06-19T00:17:51;7.60;;;4.28;;
79644;SDS011;69117;47.148;18.954;2023-06-19T00:20:53;8.23;;;4.57;;
79644;SDS011;69117;47.148;18.954;2023-06-19T00:23:57;5.97;;;4.57;;
79644;SDS011;69117;47.148;18.954;2023-06-19T00:26:59;6.90;;;4.82;;
79644;SDS011;69117;47.148;18.954;2023-06-19T00:30:05;6.93;;;4.30;;
79644;SDS011;69117;47.148;18.954;2023-06-19T00:33:07;7.18;;;4.90;;
79644;SDS011;69117;47.148;18.954;2023-06-19T00:36:10;7.20;;;4.40;;
79644;SDS011;69117;47.148;18.954;2023-06-19T00:39:12;7.20;;;4.45;;
79644;SDS011;69117;47.148;18.954;2023-06-19T00:42:14;7.90;;;5.13;;
79644;SDS011;69117;47.148;18.954;2023-06-19T00:45:15;7.50;;;4.18;;
79644;SDS011;69117;47.148;18.954;2023-06-19T00:48:17;9.70;;;4.78;;
79644;SDS011;69117;47.148;18.954;2023-06-19T00:51:19;8.68;;;4.65;;
79644;SDS011;69117;47.148;18.954;2023-06-19T00:54:21;5.95;;;4.20;;
79644;SDS011;69117;47.148;18.954;2023-06-19T00:57:23;6.97;;;4.55;;
79644;SDS011;69117;47.148;18.954;2023-06-19T01:00:24;7.07;;;4.28;;
79644;SDS011;69117;47.148;18.954;2023-06-19T01:03:26;7.65;;;4.32;;
79644;SDS011;69117;47.148;18.954;2023-06-19T01:06:29;6.47;;;4.00;;
79644;SDS011;69117;47.148;18.954;2023-06-19T01:09:42;8.73;;;4.65;;
79644;SDS011;69117;47.148;18.954;2023-06-19T01:12:55;6.38;;;4.03;;
79644;SDS011;69117;47.148;18.954;2023-06-19T01:16:00;7.03;;;4.60;;
79644;SDS011;69117;47.148;18.954;2023-06-19T01:19:04;8.02;;;4.72;;
79644;SDS011;69117;47.148;18.954;2023-06-19T01:22:11;8.70;;;5.18;;
79644;SDS011;69117;47.148;18.954;2023-06-19T01:25:23;7.60;;;4.45;;
79644;SDS011;69117;47.148;18.954;2023-06-19T01:28:25;8.15;;;4.95;;
79644;SDS011;69117;47.148;18.954;2023-06-19T01:31:30;9.07;;;5.85;;
79644;SDS011;69117;47.148;18.954;2023-06-19T01:34:34;9.18;;;5.32;;
79644;SDS011;69117;47.148;18.954;2023-06-19T01:37:41;7.82;;;4.25;;
79644;SDS011;69117;47.148;18.954;2023-06-19T01:40:44;7.75;;;4.45;;
79644;SDS011;69117;47.148;18.954;2023-06-19T01:43:46;7.63;;;4.80;;
79644;SDS011;69117;47.148;18.954;2023-06-19T01:46:49;7.45;;;4.32;;
79644;SDS011;69117;47.148;18.954;2023-06-19T01:49:52;6.47;;;4.40;;
79644;SDS011;69117;47.148;18.954;2023-06-19T01:52:55;10.32;;;4.57;;
79644;SDS011;69117;47.148;18.954;2023-06-19T01:55:57;8.65;;;5.07;;
79644;SDS011;69117;47.148;18.954;2023-06-19T01:59:00;7.63;;;5.43;;
79644;SDS011;69117;47.148;18.954;2023-06-19T02:02:01;8.70;;;4.88;;
79644;SDS011;69117;47.148;18.954;2023-06-19T02:05:05;8.90;;;5.32;;
79644;SDS011;69117;47.148;18.954;2023-06-19T02:08:07;11.85;;;6.32;;
79644;SDS011;69117;47.148;18.954;2023-06-19T02:11:09;11.30;;;5.65;;
79644;SDS011;69117;47.148;18.954;2023-06-19T02:14:10;8.73;;;5.60;;
79644;SDS011;69117;47.148;18.954;2023-06-19T02:17:12;8.88;;;5.28;;
79644;SDS011;69117;47.148;18.954;2023-06-19T02:20:14;8.48;;;5.18;;
79644;SDS011;69117;47.148;18.954;2023-06-19T02:23:16;6.75;;;4.63;;
79644;SDS011;69117;47.148;18.954;2023-06-19T02:26:18;10.02;;;4.65;;
79644;SDS011;69117;47.148;18.954;2023-06-19T02:29:19;12.95;;;6.18;;
79644;SDS011;69117;47.148;18.954;2023-06-19T02:32:21;9.52;;;5.55;;
79644;SDS011;69117;47.148;18.954;2023-06-19T02:35:23;9.23;;;5.07;;
79644;SDS011;69117;47.148;18.954;2023-06-19T02:38:25;10.82;;;7.07;;
79644;SDS011;69117;47.148;18.954;2023-06-19T02:41:27;21.85;;;9.55;;
79644;SDS011;69117;47.148;18.954;2023-06-19T02:44:28;10.50;;;6.35;;
79644;SDS011;69117;47.148;18.954;2023-06-19T02:47:30;12.02;;;7.32;;
79644;SDS011;69117;47.148;18.954;2023-06-19T02:50:35;11.57;;;7.55;;
79644;SDS011;69117;47.148;18.954;2023-06-19T02:53:36;13.10;;;7.93;;
79644;SDS011;69117;47.148;18.954;2023-06-19T02:56:38;10.38;;;7.25;;
79644;SDS011;69117;47.148;18.954;2023-06-19T02:59:40;17.60;;;9.00;;
79644;SDS011;69117;47.148;18.954;2023-06-19T03:02:41;14.80;;;8.45;;
79644;SDS011;69117;47.148;18.954;2023-06-19T03:05:45;13.20;;;8.27;;
79644;SDS011;69117;47.148;18.954;2023-06-19T03:08:47;13.45;;;7.38;;
79644;SDS011;69117;47.148;18.954;2023-06-19T03:11:48;17.55;;;8.95;;
79644;SDS011;69117;47.148;18.954;2023-06-19T03:14:50;13.93;;;7.28;;
79644;SDS011;69117;47.148;18.954;2023-06-19T03:17:52;14.50;;;8.93;;
79644;SDS011;69117;47.148;18.954;2023-06-19T03:20:54;15.98;;;8.32;;
79644;SDS011;69117;47.148;18.954;2023-06-19T03:23:56;12.75;;;7.90;;
79644;SDS011;69117;47.148;18.954;2023-06-19T03:26:58;13.75;;;7.85;;
79644;SDS011;69117;47.148;18.954;2023-06-19T03:29:59;11.23;;;6.90;;
79644;SDS011;69117;47.148;18.954;2023-06-19T03:33:01;10.52;;;6.90;;
79644;SDS011;69117;47.148;18.954;2023-06-19T03:36:03;11.45;;;7.22;;
79644;SDS011;69117;47.148;18.954;2023-06-19T03:39:05;11.05;;;7.20;;
79644;SDS011;69117;47.148;18.954;2023-06-19T03:42:07;11.88;;;7.35;;
79644;SDS011;69117;47.148;18.954;2023-06-19T03:45:09;11.52;;;7.38;;
79644;SDS011;69117;47.148;18.954;2023-06-19T03:48:11;10.45;;;7.38;;
79644;SDS011;69117;47.148;18.954;2023-06-19T03:51:13;11.70;;;7.18;;
79644;SDS011;69117;47.148;18.954;2023-06-19T03:54:14;15.57;;;8.77;;
79644;SDS011;69117;47.148;18.954;2023-06-19T03:57:16;11.77;;;6.95;;
79644;SDS011;69117;47.148;18.954;2023-06-19T04:00:18;9.88;;;6.60;;
79644;SDS011;69117;47.148;18.954;2023-06-19T04:03:20;12.48;;;7.95;;
79644;SDS011;69117;47.148;18.954;2023-06-19T04:06:22;13.60;;;7.75;;
79644;SDS011;69117;47.148;18.954;2023-06-19T04:09:24;11.45;;;7.55;;
79644;SDS011;69117;47.148;18.954;2023-06-19T04:12:26;14.00;;;7.78;;
79644;SDS011;69117;47.148;18.954;2023-06-19T04:15:27;11.02;;;7.32;;
79644;SDS011;69117;47.148;18.954;2023-06-19T04:18:29;13.98;;;7.88;;
79644;SDS011;69117;47.148;18.954;2023-06-19T04:21:31;11.60;;;7.45;;
79644;SDS011;69117;47.148;18.954;2023-06-19T04:24:32;14.65;;;8.50;;
79644;SDS011;69117;47.148;18.954;2023-06-19T04:27:34;14.43;;;8.73;;
79644;SDS011;69117;47.148;18.954;2023-06-19T04:30:36;13.35;;;8.63;;
79644;SDS011;69117;47.148;18.954;2023-06-19T04:33:40;10.55;;;6.35;;
79644;SDS011;69117;47.148;18.954;2023-06-19T04:36:43;11.63;;;7.05;;
79644;SDS011;69117;47.148;18.954;2023-06-19T04:39:45;11.43;;;7.18;;
79644;SDS011;69117;47.148;18.954;2023-06-19T04:42:47;10.18;;;6.65;;
79644;SDS011;69117;47.148;18.954;2023-06-19T04:45:49;15.32;;;8.23;;
79644;SDS011;69117;47.148;18.954;2023-06-19T04:48:51;12.77;;;7.20;;
79644;SDS011;69117;47.148;18.954;2023-06-19T04:51:52;10.90;;;6.88;;
79644;SDS011;69117;47.148;18.954;2023-06-19T04:54:54;12.80;;;6.43;;
79644;SDS011;69117;47.148;18.954;2023-06-19T04:57:55;11.15;;;6.40;;
79644;SDS011;69117;47.148;18.954;2023-06-19T05:00:57;8.88;;;6.32;;
79644;SDS011;69117;47.148;18.954;2023-06-19T05:03:59;9.68;;;5.88;;
79644;SDS011;69117;47.148;18.954;2023-06-19T05:07:01;12.30;;;5.95;;
79644;SDS011;69117;47.148;18.954;2023-06-19T05:10:03;10.38;;;6.20;;
79644;SDS011;69117;47.148;18.954;2023-06-19T05:13:05;8.98;;;6.10;;
79644;SDS011;69117;47.148;18.954;2023-06-19T05:16:07;9.63;;;6.05;;
79644;SDS011;69117;47.148;18.954;2023-06-19T05:19:09;7.10;;;5.85;;
79644;SDS011;69117;47.148;18.954;2023-06-19T05:22:10;8.48;;;4.97;;
79644;SDS011;69117;47.148;18.954;2023-06-19T05:25:12;9.02;;;5.38;;
79644;SDS011;69117;47.148;18.954;2023-06-19T05:28:14;8.85;;;5.45;;
79644;SDS011;69117;47.148;18.954;2023-06-19T05:31:15;7.35;;;5.78;;
79644;SDS011;69117;47.148;18.954;2023-06-19T05:34:17;9.23;;;5.95;;
79644;SDS011;69117;47.148;18.954;2023-06-19T05:37:19;7.15;;;4.47;;
79644;SDS011;69117;47.148;18.954;2023-06-19T05:40:20;6.35;;;4.65;;
79644;SDS011;69117;47.148;18.954;2023-06-19T05:43:22;7.20;;;4.22;;
79644;SDS011;69117;47.148;18.954;2023-06-19T05:46:25;7.75;;;4.78;;
79644;SDS011;69117;47.148;18.954;2023-06-19T05:49:27;6.72;;;5.07;;
79644;SDS011;69117;47.148;18.954;2023-06-19T05:52:29;7.93;;;4.63;;
79644;SDS011;69117;47.148;18.954;2023-06-19T05:55:30;6.55;;;5.18;;
79644;SDS011;69117;47.148;18.954;2023-06-19T05:58:32;6.25;;;4.38;;
79644;SDS011;69117;47.148;18.954;2023-06-19T06:01:34;6.13;;;4.10;;
79644;SDS011;69117;47.148;18.954;2023-06-19T06:04:36;12.35;;;4.18;;
79644;SDS011;69117;47.148;18.954;2023-06-19T06:07:38;6.97;;;4.75;;
79644;SDS011;69117;47.148;18.954;2023-06-19T06:10:42;6.15;;;3.85;;
79644;SDS011;69117;47.148;18.954;2023-06-19T06:13:44;4.97;;;3.80;;
79644;SDS011;69117;47.148;18.954;2023-06-19T06:16:46;4.88;;;3.95;;
79644;SDS011;69117;47.148;18.954;2023-06-19T06:19:48;4.63;;;3.80;;
79644;SDS011;69117;47.148;18.954;2023-06-19T06:22:49;5.60;;;3.78;;
79644;SDS011;69117;47.148;18.954;2023-06-19T06:25:51;5.88;;;4.00;;
79644;SDS011;69117;47.148;18.954;2023-06-19T06:28:53;5.63;;;4.22;;
79644;SDS011;69117;47.148;18.954;2023-06-19T06:32:05;5.20;;;3.58;;
79644;SDS011;69117;47.148;18.954;2023-06-19T06:35:08;4.05;;;3.10;;
79644;SDS011;69117;47.148;18.954;2023-06-19T06:38:10;5.00;;;3.28;;
79644;SDS011;69117;47.148;18.954;2023-06-19T06:41:12;7.07;;;3.63;;
79644;SDS011;69117;47.148;18.954;2023-06-19T06:44:14;4.47;;;3.13;;
79644;SDS011;69117;47.148;18.954;2023-06-19T06:47:15;5.97;;;3.60;;
79644;SDS011;69117;47.148;18.954;2023-06-19T06:50:17;4.75;;;3.03;;
79644;SDS011;69117;47.148;18.954;2023-06-19T06:53:18;5.68;;;3.13;;
79644;SDS011;69117;47.148;18.954;2023-06-19T06:56:20;3.45;;;2.80;;
79644;SDS011;69117;47.148;18.954;2023-06-19T06:59:22;4.65;;;3.50;;
79644;SDS011;69117;47.148;18.954;2023-06-19T07:02:24;5.78;;;3.67;;
79644;SDS011;69117;47.148;18.954;2023-06-19T07:05:28;5.95;;;3.92;;
79644;SDS011;69117;47.148;18.954;2023-06-19T07:08:31;8.07;;;3.55;;
79644;SDS011;69117;47.148;18.954;2023-06-19T07:11:32;5.28;;;3.58;;
79644;SDS011;69117;47.148;18.954;2023-06-19T07:14:34;7.47;;;3.20;;
79644;SDS011;69117;47.148;18.954;2023-06-19T07:17:36;3.92;;;3.10;;
79644;SDS011;69117;47.148;18.954;2023-06-19T07:20:37;3.88;;;2.50;;
79644;SDS011;69117;47.148;18.954;2023-06-19T07:23:39;4.78;;;2.95;;
79644;SDS011;69117;47.148;18.954;2023-06-19T07:26:42;3.97;;;2.83;;
79644;SDS011;69117;47.148;18.954;2023-06-19T07:29:43;3.63;;;3.15;;
79644;SDS011;69117;47.148;18.954;2023-06-19T07:32:45;3.78;;;2.75;;
79644;SDS011;69117;47.148;18.954;2023-06-19T07:35:47;4.35;;;3.33;;
79644;SDS011;69117;47.148;18.954;2023-06-19T07:38:49;7.03;;;3.20;;
79644;SDS011;69117;47.148;18.954;2023-06-19T07:41:50;4.32;;;3.40;;
79644;SDS011;69117;47.148;18.954;2023-06-19T07:44:52;4.40;;;2.95;;
79644;SDS011;69117;47.148;18.954;2023-06-19T07:47:54;5.70;;;2.83;;
79644;SDS011;69117;47.148;18.954;2023-06-19T07:50:57;4.35;;;3.08;;
79644;SDS011;69117;47.148;18.954;2023-06-19T07:53:59;5.53;;;3.63;;
79644;SDS011;69117;47.148;18.954;2023-06-19T07:57:00;5.45;;;3.33;;
79644;SDS011;69117;47.148;18.954;2023-06-19T08:00:03;3.90;;;3.10;;
79644;SDS011;69117;47.148;18.954;2023-06-19T08:03:23;5.82;;;3.47;;
79644;SDS011;69117;47.148;18.954;2023-06-19T08:06:25;4.45;;;3.58;;
79644;SDS011;69117;47.148;18.954;2023-06-19T08:09:27;4.05;;;3.35;;
79644;SDS011;69117;47.148;18.954;2023-06-19T08:12:29;8.93;;;3.38;;
79644;SDS011;69117;47.148;18.954;2023-06-19T08:15:31;13.25;;;5.30;;
79644;SDS011;69117;47.148;18.954;2023-06-19T08:18:33;5.68;;;3.75;;
79644;SDS011;69117;47.148;18.954;2023-06-19T08:21:34;5.18;;;3.40;;
79644;SDS011;69117;47.148;18.954;2023-06-19T08:24:36;10.88;;;3.78;;
79644;SDS011;69117;47.148;18.954;2023-06-19T08:27:41;5.07;;;3.45;;
79644;SDS011;69117;47.148;18.954;2023-06-19T08:30:44;4.35;;;3.30;;
79644;SDS011;69117;47.148;18.954;2023-06-19T08:33:47;6.35;;;4.10;;
79644;SDS011;69117;47.148;18.954;2023-06-19T08:36:54;4.70;;;4.18;;
79644;SDS011;69117;47.148;18.954;2023-06-19T08:39:56;7.75;;;3.35;;
79644;SDS011;69117;47.148;18.954;2023-06-19T08:42:58;5.07;;;2.95;;
79644;SDS011;69117;47.148;18.954;2023-06-19T08:49:12;6.10;;;3.83;;
79644;SDS011;69117;47.148;18.954;2023-06-19T08:52:14;3.67;;;3.00;;
79644;SDS011;69117;47.148;18.954;2023-06-19T08:55:16;4.07;;;3.67;;
79644;SDS011;69117;47.148;18.954;2023-06-19T08:58:21;5.65;;;3.58;;
79644;SDS011;69117;47.148;18.954;2023-06-19T09:01:25;4.82;;;3.58;;
79644;SDS011;69117;47.148;18.954;2023-06-19T09:04:28;4.03;;;3.40;;
79644;SDS011;69117;47.148;18.954;2023-06-19T09:07:29;5.55;;;2.83;;
79644;SDS011;69117;47.148;18.954;2023-06-19T09:10:31;4.32;;;3.50;;
79644;SDS011;69117;47.148;18.954;2023-06-19T09:13:34;4.07;;;3.20;;
79644;SDS011;69117;47.148;18.954;2023-06-19T09:16:39;7.90;;;3.00;;
79644;SDS011;69117;47.148;18.954;2023-06-19T09:19:49;4.10;;;3.08;;
79644;SDS011;69117;47.148;18.954;2023-06-19T09:22:54;4.07;;;2.75;;
79644;SDS011;69117;47.148;18.954;2023-06-19T09:25:59;5.00;;;3.65;;
79644;SDS011;69117;47.148;18.954;2023-06-19T09:29:10;5.78;;;3.65;;
79644;SDS011;69117;47.148;18.954;2023-06-19T09:32:22;6.05;;;3.58;;
79644;SDS011;69117;47.148;18.954;2023-06-19T09:35:28;4.30;;;3.35;;
79644;SDS011;69117;47.148;18.954;2023-06-19T09:38:31;3.78;;;2.97;;
79644;SDS011;69117;47.148;18.954;2023-06-19T09:41:40;4.47;;;3.30;;
79644;SDS011;69117;47.148;18.954;2023-06-19T09:44:43;12.50;;;3.95;;
79644;SDS011;69117;47.148;18.954;2023-06-19T09:47:48;6.03;;;5.03;;
79644;SDS011;69117;47.148;18.954;2023-06-19T09:50:59;4.25;;;3.00;;
79644;SDS011;69117;47.148;18.954;2023-06-19T09:54:06;4.07;;;3.65;;
79644;SDS011;69117;47.148;18.954;2023-06-19T09:57:10;4.43;;;3.67;;
79644;SDS011;69117;47.148;18.954;2023-06-19T10:00:12;4.53;;;3.10;;
79644;SDS011;69117;47.148;18.954;2023-06-19T10:03:17;8.07;;;3.15;;
79644;SDS011;69117;47.148;18.954;2023-06-19T10:06:19;5.10;;;3.17;;
79644;SDS011;69117;47.148;18.954;2023-06-19T10:09:23;4.15;;;3.67;;
79644;SDS011;69117;47.148;18.954;2023-06-19T10:12:41;3.50;;;3.10;;
79644;SDS011;69117;47.148;18.954;2023-06-19T10:15:44;4.50;;;3.95;;
79644;SDS011;69117;47.148;18.954;2023-06-19T10:18:46;3.97;;;3.20;;
79644;SDS011;69117;47.148;18.954;2023-06-19T10:21:49;4.53;;;3.78;;
79644;SDS011;69117;47.148;18.954;2023-06-19T10:24:52;5.68;;;3.58;;
79644;SDS011;69117;47.148;18.954;2023-06-19T10:27:54;7.07;;;3.90;;
79644;SDS011;69117;47.148;18.954;2023-06-19T10:30:56;4.68;;;3.75;;
79644;SDS011;69117;47.148;18.954;2023-06-19T10:34:03;5.22;;;4.07;;
79644;SDS011;69117;47.148;18.954;2023-06-19T10:37:05;5.15;;;4.25;;
79644;SDS011;69117;47.148;18.954;2023-06-19T10:40:07;5.80;;;3.75;;
79644;SDS011;69117;47.148;18.954;2023-06-19T10:43:20;3.92;;;3.63;;
79644;SDS011;69117;47.148;18.954;2023-06-19T10:46:30;5.88;;;4.47;;
79644;SDS011;69117;47.148;18.954;2023-06-19T10:49:37;4.90;;;4.40;;
79644;SDS011;69117;47.148;18.954;2023-06-19T10:52:42;5.53;;;4.82;;
79644;SDS011;69117;47.148;18.954;2023-06-19T10:55:45;6.13;;;4.47;;
79644;SDS011;69117;47.148;18.954;2023-06-19T10:58:46;5.35;;;4.43;;
79644;SDS011;69117;47.148;18.954;2023-06-19T11:01:48;4.75;;;3.92;;
79644;SDS011;69117;47.148;18.954;2023-06-19T11:04:52;4.85;;;3.72;;
79644;SDS011;69117;47.148;18.954;2023-06-19T11:07:56;5.07;;;3.90;;
79644;SDS011;69117;47.148;18.954;2023-06-19T11:10:59;6.00;;;5.05;;
79644;SDS011;69117;47.148;18.954;2023-06-19T11:14:01;8.27;;;4.45;;
79644;SDS011;69117;47.148;18.954;2023-06-19T11:17:03;4.13;;;3.70;;
79644;SDS011;69117;47.148;18.954;2023-06-19T11:20:09;4.53;;;3.92;;
79644;SDS011;69117;47.148;18.954;2023-06-19T11:23:12;4.95;;;3.42;;
79644;SDS011;69117;47.148;18.954;2023-06-19T11:26:14;6.13;;;3.80;;
79644;SDS011;69117;47.148;18.954;2023-06-19T11:29:16;4.80;;;4.38;;
79644;SDS011;69117;47.148;18.954;2023-06-19T11:32:20;5.18;;;4.68;;
79644;SDS011;69117;47.148;18.954;2023-06-19T11:35:32;6.40;;;4.75;;
79644;SDS011;69117;47.148;18.954;2023-06-19T11:38:35;5.93;;;4.18;;
79644;SDS011;69117;47.148;18.954;2023-06-19T11:41:39;4.28;;;3.80;;
79644;SDS011;69117;47.148;18.954;2023-06-19T11:48:13;5.10;;;4.38;;
79644;SDS011;69117;47.148;18.954;2023-06-19T11:51:15;4.28;;;3.88;;
79644;SDS011;69117;47.148;18.954;2023-06-19T11:54:17;4.28;;;3.45;;
79644;SDS011;69117;47.148;18.954;2023-06-19T11:57:26;5.20;;;4.03;;
79644;SDS011;69117;47.148;18.954;2023-06-19T12:00:28;4.65;;;4.10;;
79644;SDS011;69117;47.148;18.954;2023-06-19T12:03:30;5.78;;;4.30;;
79644;SDS011;69117;47.148;18.954;2023-06-19T12:06:32;4.68;;;4.28;;
79644;SDS011;69117;47.148;18.954;2023-06-19T12:09:33;5.63;;;4.35;;
79644;SDS011;69117;47.148;18.954;2023-06-19T12:12:36;4.38;;;3.97;;
79644;SDS011;69117;47.148;18.954;2023-06-19T12:15:39;7.28;;;4.25;;
79644;SDS011;69117;47.148;18.954;2023-06-19T12:18:41;4.85;;;3.83;;
79644;SDS011;69117;47.148;18.954;2023-06-19T12:21:43;4.95;;;4.50;;
79644;SDS011;69117;47.148;18.954;2023-06-19T12:24:44;4.63;;;4.22;;
79644;SDS011;69117;47.148;18.954;2023-06-19T12:27:46;7.28;;;4.25;;
79644;SDS011;69117;47.148;18.954;2023-06-19T12:30:48;4.88;;;4.38;;
79644;SDS011;69117;47.148;18.954;2023-06-19T12:33:54;5.03;;;4.20;;
79644;SDS011;69117;47.148;18.954;2023-06-19T12:37:04;5.50;;;4.13;;
79644;SDS011;69117;47.148;18.954;2023-06-19T12:40:06;6.03;;;4.05;;
79644;SDS011;69117;47.148;18.954;2023-06-19T12:46:13;3.97;;;3.67;;
79644;SDS011;69117;47.148;18.954;2023-06-19T12:49:15;5.53;;;5.05;;
79644;SDS011;69117;47.148;18.954;2023-06-19T12:52:17;5.35;;;4.30;;
79644;SDS011;69117;47.148;18.954;2023-06-19T12:55:18;6.40;;;5.70;;
79644;SDS011;69117;47.148;18.954;2023-06-19T12:58:20;4.90;;;4.43;;
79644;SDS011;69117;47.148;18.954;2023-06-19T13:01:22;5.32;;;4.53;;
79644;SDS011;69117;47.148;18.954;2023-06-19T13:04:23;4.20;;;3.65;;
79644;SDS011;69117;47.148;18.954;2023-06-19T13:07:25;5.40;;;4.75;;
79644;SDS011;69117;47.148;18.954;2023-06-19T13:10:27;4.38;;;3.97;;
79644;SDS011;69117;47.148;18.954;2023-06-19T13:13:28;5.72;;;5.22;;
79644;SDS011;69117;47.148;18.954;2023-06-19T13:16:30;5.53;;;4.78;;
79644;SDS011;69117;47.148;18.954;2023-06-19T13:19:46;4.70;;;4.13;;
79644;SDS011;69117;47.148;18.954;2023-06-19T13:22:48;5.22;;;4.80;;
79644;SDS011;69117;47.148;18.954;2023-06-19T13:25:49;4.40;;;3.97;;
79644;SDS011;69117;47.148;18.954;2023-06-19T13:28:51;5.15;;;4.75;;
79644;SDS011;69117;47.148;18.954;2023-06-19T13:31:53;5.47;;;4.93;;
79644;SDS011;69117;47.148;18.954;2023-06-19T13:34:54;5.15;;;4.65;;
79644;SDS011;69117;47.148;18.954;2023-06-19T13:37:57;5.28;;;4.60;;
79644;SDS011;69117;47.148;18.954;2023-06-19T13:40:59;5.00;;;4.40;;
79644;SDS011;69117;47.148;18.954;2023-06-19T13:44:00;6.63;;;5.35;;
79644;SDS011;69117;47.148;18.954;2023-06-19T13:47:02;6.00;;;5.40;;
79644;SDS011;69117;47.148;18.954;2023-06-19T13:50:05;5.05;;;4.22;;
79644;SDS011;69117;47.148;18.954;2023-06-19T13:53:08;4.95;;;4.45;;
79644;SDS011;69117;47.148;18.954;2023-06-19T13:56:10;5.50;;;5.05;;
79644;SDS011;69117;47.148;18.954;2023-06-19T13:59:12;5.22;;;4.80;;
79644;SDS011;69117;47.148;18.954;2023-06-19T14:02:14;4.90;;;4.43;;
79644;SDS011;69117;47.148;18.954;2023-06-19T14:05:16;4.95;;;4.38;;
79644;SDS011;69117;47.148;18.954;2023-06-19T14:08:18;4.88;;;4.43;;
79644;SDS011;69117;47.148;18.954;2023-06-19T14:11:20;5.03;;;4.60;;
79644;SDS011;69117;47.148;18.954;2023-06-19T14:14:22;6.10;;;5.50;;
79644;SDS011;69117;47.148;18.954;2023-06-19T14:17:23;4.53;;;4.13;;
79644;SDS011;69117;47.148;18.954;2023-06-19T14:20:25;5.22;;;4.60;;
79644;SDS011;69117;47.148;18.954;2023-06-19T14:23:27;6.22;;;4.88;;
79644;SDS011;69117;47.148;18.954;2023-06-19T14:26:29;4.22;;;3.83;;
79644;SDS011;69117;47.148;18.954;2023-06-19T14:29:37;4.65;;;4.25;;
79644;SDS011;69117;47.148;18.954;2023-06-19T14:32:39;5.07;;;4.43;;
79644;SDS011;69117;47.148;18.954;2023-06-19T14:35:41;5.80;;;5.20;;
79644;SDS011;69117;47.148;18.954;2023-06-19T14:38:45;5.03;;;4.53;;
79644;SDS011;69117;47.148;18.954;2023-06-19T14:41:47;4.45;;;4.05;;
79644;SDS011;69117;47.148;18.954;2023-06-19T14:44:49;5.75;;;5.07;;
79644;SDS011;69117;47.148;18.954;2023-06-19T14:47:51;4.32;;;3.95;;
79644;SDS011;69117;47.148;18.954;2023-06-19T14:50:52;6.03;;;4.15;;
79644;SDS011;69117;47.148;18.954;2023-06-19T14:53:54;4.78;;;4.38;;
79644;SDS011;69117;47.148;18.954;2023-06-19T14:56:56;4.65;;;4.22;;
79644;SDS011;69117;47.148;18.954;2023-06-19T14:59:57;6.30;;;4.88;;
79644;SDS011;69117;47.148;18.954;2023-06-19T15:02:59;4.90;;;4.30;;
79644;SDS011;69117;47.148;18.954;2023-06-19T15:06:01;5.05;;;4.55;;
79644;SDS011;69117;47.148;18.954;2023-06-19T15:09:03;5.13;;;4.47;;
79644;SDS011;69117;47.148;18.954;2023-06-19T15:12:05;5.05;;;4.63;;
79644;SDS011;69117;47.148;18.954;2023-06-19T15:15:07;4.88;;;4.47;;
79644;SDS011;69117;47.148;18.954;2023-06-19T15:18:09;5.43;;;4.93;;
79644;SDS011;69117;47.148;18.954;2023-06-19T15:21:11;30.05;;;5.47;;
79644;SDS011;69117;47.148;18.954;2023-06-19T15:24:13;4.97;;;4.57;;
79644;SDS011;69117;47.148;18.954;2023-06-19T15:27:15;6.13;;;4.75;;
79644;SDS011;69117;47.148;18.954;2023-06-19T15:30:17;4.68;;;4.28;;
79644;SDS011;69117;47.148;18.954;2023-06-19T15:33:18;6.00;;;5.05;;
79644;SDS011;69117;47.148;18.954;2023-06-19T15:36:20;5.15;;;3.83;;
79644;SDS011;69117;47.148;18.954;2023-06-19T15:39:22;5.72;;;5.18;;
79644;SDS011;69117;47.148;18.954;2023-06-19T15:42:23;5.03;;;4.55;;
79644;SDS011;69117;47.148;18.954;2023-06-19T15:45:25;20.70;;;6.15;;
79644;SDS011;69117;47.148;18.954;2023-06-19T15:48:27;6.97;;;4.72;;
79644;SDS011;69117;47.148;18.954;2023-06-19T15:51:29;4.80;;;4.25;;
79644;SDS011;69117;47.148;18.954;2023-06-19T15:54:31;4.53;;;3.97;;
79644;SDS011;69117;47.148;18.954;2023-06-19T15:57:33;5.90;;;5.30;;
79644;SDS011;69117;47.148;18.954;2023-06-19T16:00:34;5.05;;;4.60;;
79644;SDS011;69117;47.148;18.954;2023-06-19T16:03:36;5.50;;;4.88;;
79644;SDS011;69117;47.148;18.954;2023-06-19T16:06:38;4.95;;;4.47;;
79644;SDS011;69117;47.148;18.954;2023-06-19T16:09:41;4.90;;;4.22;;
79644;SDS011;69117;47.148;18.954;2023-06-19T16:12:55;5.70;;;5.20;;
79644;SDS011;69117;47.148;18.954;2023-06-19T16:15:57;4.82;;;4.20;;
79644;SDS011;69117;47.148;18.954;2023-06-19T16:18:59;6.05;;;5.13;;
79644;SDS011;69117;47.148;18.954;2023-06-19T16:22:00;5.38;;;4.72;;
79644;SDS011;69117;47.148;18.954;2023-06-19T16:25:02;4.47;;;3.78;;
79644;SDS011;69117;47.148;18.954;2023-06-19T16:28:04;5.30;;;4.60;;
79644;SDS011;69117;47.148;18.954;2023-06-19T16:31:06;5.82;;;5.38;;
79644;SDS011;69117;47.148;18.954;2023-06-19T16:34:09;6.63;;;4.15;;
79644;SDS011;69117;47.148;18.954;2023-06-19T16:37:11;5.63;;;4.40;;
79644;SDS011;69117;47.148;18.954;2023-06-19T16:40:12;6.72;;;4.70;;
79644;SDS011;69117;47.148;18.954;2023-06-19T16:43:14;5.10;;;4.47;;
79644;SDS011;69117;47.148;18.954;2023-06-19T16:46:16;5.22;;;4.72;;
79644;SDS011;69117;47.148;18.954;2023-06-19T16:49:18;5.75;;;4.70;;
79644;SDS011;69117;47.148;18.954;2023-06-19T16:52:20;5.05;;;4.65;;
79644;SDS011;69117;47.148;18.954;2023-06-19T16:55:23;5.40;;;4.32;;
79644;SDS011;69117;47.148;18.954;2023-06-19T16:58:25;4.93;;;4.50;;
79644;SDS011;69117;47.148;18.954;2023-06-19T17:01:27;5.28;;;4.13;;
79644;SDS011;69117;47.148;18.954;2023-06-19T17:04:29;5.53;;;4.38;;
79644;SDS011;69117;47.148;18.954;2023-06-19T17:07:30;4.95;;;4.18;;
79644;SDS011;69117;47.148;18.954;2023-06-19T17:10:32;5.30;;;4.80;;
79644;SDS011;69117;47.148;18.954;2023-06-19T17:13:34;9.45;;;4.30;;
79644;SDS011;69117;47.148;18.954;2023-06-19T17:16:35;4.88;;;4.20;;
79644;SDS011;69117;47.148;18.954;2023-06-19T17:19:37;5.22;;;4.65;;
79644;SDS011;69117;47.148;18.954;2023-06-19T17:22:39;4.60;;;3.97;;
79644;SDS011;69117;47.148;18.954;2023-06-19T17:25:41;5.03;;;4.25;;
79644;SDS011;69117;47.148;18.954;2023-06-19T17:28:42;5.15;;;4.18;;
79644;SDS011;69117;47.148;18.954;2023-06-19T17:31:44;5.28;;;4.20;;
79644;SDS011;69117;47.148;18.954;2023-06-19T17:34:45;5.97;;;3.53;;
79644;SDS011;69117;47.148;18.954;2023-06-19T17:37:47;8.32;;;4.10;;
79644;SDS011;69117;47.148;18.954;2023-06-19T17:40:49;6.88;;;4.18;;
79644;SDS011;69117;47.148;18.954;2023-06-19T17:43:50;4.65;;;4.22;;
79644;SDS011;69117;47.148;18.954;2023-06-19T17:46:52;6.57;;;5.15;;
79644;SDS011;69117;47.148;18.954;2023-06-19T17:49:54;6.78;;;5.13;;
79644;SDS011;69117;47.148;18.954;2023-06-19T17:52:56;5.65;;;4.20;;
79644;SDS011;69117;47.148;18.954;2023-06-19T17:55:57;6.38;;;4.60;;
79644;SDS011;69117;47.148;18.954;2023-06-19T17:59:02;8.45;;;4.07;;
79644;SDS011;69117;47.148;18.954;2023-06-19T18:02:03;7.68;;;4.55;;
79644;SDS011;69117;47.148;18.954;2023-06-19T18:05:05;4.88;;;4.38;;
79644;SDS011;69117;47.148;18.954;2023-06-19T18:08:08;4.93;;;4.40;;
79644;SDS011;69117;47.148;18.954;2023-06-19T18:11:09;6.07;;;4.68;;
79644;SDS011;69117;47.148;18.954;2023-06-19T18:14:11;8.05;;;4.20;;